createdAt,value
2022-10-01T00:01:00.252Z,99413.91
2022-10-01T00:03:29.192Z,99404.41
2022-10-01T00:06:08.818Z,99398.66
2022-10-01T00:08:38.443Z,99394.06
2022-10-01T00:11:17.683Z,99385.00
2022-10-01T00:13:45.850Z,99386.25
2022-10-01T00:16:15.679Z,99385.34
2022-10-01T00:18:45.186Z,99384.66
2022-10-01T00:21:18.421Z,99384.03
2022-10-01T00:23:46.456Z,99371.47
2022-10-01T00:26:15.849Z,99368.63
2022-10-01T00:28:45.865Z,99365.97
2022-10-01T00:31:14.511Z,99362.09
2022-10-01T00:33:43.016Z,99360.84
2022-10-01T00:36:11.891Z,99366.88
2022-10-01T00:38:39.650Z,99361.16
2022-10-01T00:41:08.554Z,99363.50
2022-10-01T00:43:38.592Z,99377.34
2022-10-01T00:46:20.005Z,99414.28
2022-10-01T00:48:55.454Z,99465.91
2022-10-01T00:51:23.302Z,99465.16
2022-10-01T00:53:51.366Z,99431.19
2022-10-01T00:56:19.082Z,99383.41
2022-10-01T00:58:46.805Z,99371.97
2022-10-01T01:01:14.805Z,99368.16
2022-10-01T01:03:43.043Z,99373.03
2022-10-01T01:06:10.658Z,99375.00
2022-10-01T01:08:38.595Z,99378.63
2022-10-01T01:11:28.755Z,99364.34
2022-10-01T01:14:22.951Z,99363.88
2022-10-01T01:16:58.507Z,99355.44
2022-10-01T01:20:21.026Z,99363.50
2022-10-01T01:23:12.031Z,99358.06
2022-10-01T01:25:46.402Z,99371.00
2022-10-01T01:28:34.761Z,99365.12
2022-10-01T01:31:09.888Z,99381.13
2022-10-01T01:33:39.280Z,99368.56
2022-10-01T01:36:13.363Z,99371.00
2022-10-01T01:38:45.347Z,99368.13
2022-10-01T01:41:14.303Z,99361.91
2022-10-01T01:43:44.785Z,99372.00
2022-10-01T01:46:13.649Z,99364.91
2022-10-01T01:48:42.043Z,99371.53
2022-10-01T01:51:18.961Z,99367.87
2022-10-01T01:53:47.027Z,99358.06
2022-10-01T01:56:14.894Z,99359.31
2022-10-01T01:58:43.083Z,99370.09
2022-10-01T02:01:42.849Z,99385.59
2022-10-01T02:04:23.871Z,99406.97
2022-10-01T02:06:57.594Z,99407.47
2022-10-01T02:09:54.698Z,99399.53
2022-10-01T02:12:48.542Z,99394.13
2022-10-01T02:15:26.422Z,99389.97
2022-10-01T02:17:57.633Z,99379.12
2022-10-01T02:20:37.351Z,99384.16
2022-10-01T02:23:11.673Z,99387.38
2022-10-01T02:25:45.779Z,99371.78
2022-10-01T02:28:16.805Z,99359.25
2022-10-01T02:30:45.246Z,99341.78
2022-10-01T02:33:15.768Z,99340.66
2022-10-01T02:35:45.010Z,99339.88
2022-10-01T02:38:13.812Z,99353.37
2022-10-01T02:40:43.489Z,99350.22
2022-10-01T02:43:15.825Z,99356.22
2022-10-01T02:45:47.062Z,99353.66
2022-10-01T02:48:14.687Z,99359.69
2022-10-01T02:50:48.853Z,99351.91
2022-10-01T02:53:20.832Z,99355.91
2022-10-01T02:55:49.298Z,99357.97
2022-10-01T02:58:18.442Z,99365.91
2022-10-01T03:00:46.094Z,99363.41
2022-10-01T03:03:13.719Z,99364.78
2022-10-01T03:05:41.629Z,99374.59
2022-10-01T03:08:09.296Z,99382.31
2022-10-01T03:10:36.952Z,99381.53
2022-10-01T03:13:05.012Z,99378.47
2022-10-01T03:15:32.667Z,99386.31
2022-10-01T03:18:01.954Z,99380.81
2022-10-01T03:20:29.913Z,99376.63
2022-10-01T03:22:57.540Z,99382.69
2022-10-01T03:25:25.343Z,99397.16
2022-10-01T03:27:53.212Z,99396.50
2022-10-01T03:30:20.832Z,99385.84
2022-10-01T03:32:50.254Z,99392.00
2022-10-01T03:35:18.126Z,99394.34
2022-10-01T03:37:45.669Z,99395.28
2022-10-01T03:40:13.420Z,99402.59
2022-10-01T03:42:41.356Z,99389.28
2022-10-01T03:45:09.238Z,99383.87
2022-10-01T03:47:36.855Z,99391.84
2022-10-01T03:50:05.564Z,99391.56
2022-10-01T03:52:34.419Z,99397.63
2022-10-01T03:55:02.070Z,99410.31
2022-10-01T03:57:29.905Z,99401.34
2022-10-01T03:59:57.593Z,99398.50
2022-10-01T04:02:25.325Z,99392.00
2022-10-01T04:04:53.351Z,99401.00
2022-10-01T04:07:20.938Z,99408.06
2022-10-01T04:09:48.897Z,99405.06
2022-10-01T04:12:16.844Z,99397.94
2022-10-01T04:14:44.486Z,99398.06
2022-10-01T04:17:12.068Z,99389.81
2022-10-01T04:19:40.026Z,99384.22
2022-10-01T04:22:07.766Z,99379.94
2022-10-01T04:24:35.367Z,99375.59
2022-10-01T04:27:03.377Z,99383.22
2022-10-01T04:29:31.013Z,99380.06
2022-10-01T04:31:58.821Z,99380.22
2022-10-01T04:34:28.492Z,99375.94
2022-10-01T04:36:56.339Z,99373.66
2022-10-01T04:39:23.977Z,99366.72
2022-10-01T04:41:51.801Z,99365.03
2022-10-01T04:44:19.414Z,99369.44
2022-10-01T04:46:47.111Z,99371.75
2022-10-01T04:49:15.196Z,99365.84
2022-10-01T04:51:42.815Z,99362.84
2022-10-01T04:54:10.371Z,99371.22
2022-10-01T04:56:38.183Z,99369.13
2022-10-01T04:59:05.929Z,99363.69
2022-10-01T05:01:33.801Z,99374.13
2022-10-01T05:04:02.231Z,99378.41
2022-10-01T05:06:29.779Z,99371.69
2022-10-01T05:08:57.323Z,99369.66
2022-10-01T05:11:25.391Z,99374.59
2022-10-01T05:13:53.043Z,99369.66
2022-10-01T05:16:20.756Z,99377.75
2022-10-01T05:18:48.787Z,99392.38
2022-10-01T05:21:16.428Z,99393.66
2022-10-01T05:23:43.998Z,99409.66
2022-10-01T05:26:11.900Z,99430.53
2022-10-01T05:28:39.745Z,99448.31
2022-10-01T05:31:07.671Z,99440.03
2022-10-01T05:33:35.638Z,99433.50
2022-10-01T05:36:05.634Z,99430.37
2022-10-01T05:38:33.891Z,99423.63
2022-10-01T05:41:01.933Z,99410.44
2022-10-01T05:43:29.679Z,99410.97
2022-10-01T05:46:03.336Z,99407.16
2022-10-01T05:48:31.984Z,99414.28
2022-10-01T05:51:00.536Z,99408.19
2022-10-01T05:53:28.627Z,99411.34
2022-10-01T05:55:59.381Z,99408.50
2022-10-01T05:58:27.691Z,99396.81
2022-10-01T06:00:56.260Z,99388.72
2022-10-01T06:03:26.020Z,99386.31
2022-10-01T06:05:54.407Z,99396.47
2022-10-01T06:08:22.727Z,99395.81
2022-10-01T06:10:51.366Z,99391.25
2022-10-01T06:13:19.475Z,99398.78
2022-10-01T06:15:47.577Z,99399.87
2022-10-01T06:18:16.135Z,99408.91
2022-10-01T06:20:44.568Z,99416.69
2022-10-01T06:23:13.489Z,99413.16
2022-10-01T06:25:43.011Z,99406.81
2022-10-01T06:28:12.793Z,99398.19
2022-10-01T06:30:41.096Z,99401.56
2022-10-01T06:33:11.462Z,99414.94
2022-10-01T06:35:44.812Z,99411.25
2022-10-01T06:38:13.845Z,99402.91
2022-10-01T06:40:42.479Z,99389.16
2022-10-01T06:43:10.674Z,99389.63
2022-10-01T06:45:40.387Z,99387.66
2022-10-01T06:48:10.148Z,99369.97
2022-10-01T06:50:38.601Z,99365.06
2022-10-01T06:53:07.093Z,99368.87
2022-10-01T06:55:36.344Z,99386.34
2022-10-01T06:58:07.780Z,99396.81
2022-10-01T07:00:36.388Z,99403.03
2022-10-01T07:03:06.048Z,99393.97
2022-10-01T07:05:34.209Z,99395.16
2022-10-01T07:08:02.424Z,99388.03
2022-10-01T07:10:31.633Z,99390.41
2022-10-01T07:13:10.857Z,99385.97
2022-10-01T07:15:40.799Z,99388.81
2022-10-01T07:18:09.866Z,99384.34
2022-10-01T07:20:39.475Z,99381.50
2022-10-01T07:23:10.665Z,99378.00
2022-10-01T07:25:41.893Z,99385.13
2022-10-01T07:28:17.931Z,99390.16
2022-10-01T07:30:56.676Z,99390.19
2022-10-01T07:33:24.754Z,99392.19
2022-10-01T07:35:53.235Z,99395.94
2022-10-01T07:38:21.679Z,99386.78
2022-10-01T07:40:53.517Z,99381.31
2022-10-01T07:43:22.441Z,99373.72
2022-10-01T07:45:51.197Z,99361.72
2022-10-01T07:48:19.379Z,99366.31
2022-10-01T07:50:48.229Z,99353.06
2022-10-01T07:53:16.757Z,99353.22
2022-10-01T07:55:45.354Z,99364.47
2022-10-01T07:58:16.130Z,99368.47
2022-10-01T08:00:44.473Z,99354.47
2022-10-01T08:03:12.861Z,99368.75
2022-10-01T08:05:42.140Z,99373.06
2022-10-01T08:08:10.352Z,99373.47
2022-10-01T08:10:39.156Z,99373.72
2022-10-01T08:13:15.703Z,99365.94
2022-10-01T08:15:47.077Z,99367.94
2022-10-01T08:18:15.298Z,99366.31
2022-10-01T08:20:43.420Z,99363.16
2022-10-01T08:23:14.068Z,99353.78
2022-10-01T08:25:43.599Z,99344.75
2022-10-01T08:28:13.399Z,99347.19
2022-10-01T08:30:42.610Z,99342.09
2022-10-01T08:33:12.283Z,99347.19
2022-10-01T08:35:41.389Z,99342.56
2022-10-01T08:38:12.321Z,99352.72
2022-10-01T08:40:48.999Z,99347.41
2022-10-01T08:43:27.330Z,99350.25
2022-10-01T08:45:59.031Z,99343.81
2022-10-01T08:48:56.194Z,99343.13
2022-10-01T08:52:17.665Z,99347.31
2022-10-01T08:55:01.544Z,99347.97
2022-10-01T08:57:32.378Z,99336.63
2022-10-01T09:00:04.250Z,99331.44
2022-10-01T09:02:38.439Z,99322.06
2022-10-01T09:05:24.113Z,99321.25
2022-10-01T09:08:06.449Z,99311.91
2022-10-01T09:10:46.285Z,99308.28
2022-10-01T09:13:50.561Z,99312.25
2022-10-01T09:16:38.058Z,99310.09
2022-10-01T09:19:34.983Z,99319.25
2022-10-01T09:22:11.711Z,99312.81
2022-10-01T09:24:52.034Z,99315.97
2022-10-01T09:27:29.011Z,99310.22
2022-10-01T09:30:03.954Z,99293.72
2022-10-01T09:32:37.091Z,99303.03
2022-10-01T09:35:20.127Z,99304.50
2022-10-01T09:38:01.188Z,99305.75
2022-10-01T09:40:34.613Z,99303.34
2022-10-01T09:43:04.291Z,99286.19
2022-10-01T09:45:33.004Z,99303.59
2022-10-01T09:48:30.771Z,99301.34
2022-10-01T09:51:08.409Z,99297.59
2022-10-01T09:53:46.297Z,99311.28
2022-10-01T09:56:19.540Z,99300.75
2022-10-01T09:58:52.275Z,99291.25
2022-10-01T10:01:30.800Z,99291.16
2022-10-01T10:03:59.253Z,99297.72
2022-10-01T10:06:29.206Z,99291.25
2022-10-01T10:08:58.277Z,99290.59
2022-10-01T10:11:31.575Z,99283.25
2022-10-01T10:14:02.152Z,99281.31
2022-10-01T10:16:34.450Z,99272.75
2022-10-01T10:19:23.400Z,99267.31
2022-10-01T10:21:57.476Z,99274.09
2022-10-01T10:24:25.677Z,99264.09
2022-10-01T10:26:56.787Z,99262.63
2022-10-01T10:29:26.013Z,99265.56
2022-10-01T10:31:54.510Z,99262.91
2022-10-01T10:34:38.480Z,99266.22
2022-10-01T10:37:13.500Z,99261.72
2022-10-01T10:39:42.727Z,99246.94
2022-10-01T10:42:14.339Z,99251.25
2022-10-01T10:44:44.260Z,99249.53
2022-10-01T10:47:16.300Z,99245.66
2022-10-01T10:49:50.524Z,99247.47
2022-10-01T10:53:06.459Z,99242.28
2022-10-01T10:55:32.554Z,99229.59
2022-10-01T10:58:31.791Z,99231.28
2022-10-01T11:01:06.207Z,99221.50
2022-10-01T11:03:36.708Z,99227.16
2022-10-01T11:06:22.630Z,99218.09
2022-10-01T11:09:03.536Z,99216.31
2022-10-01T11:12:04.782Z,99204.94
2022-10-01T11:14:57.821Z,99205.25
2022-10-01T11:17:50.420Z,99202.81
2022-10-01T11:20:34.822Z,99189.59
2022-10-01T11:23:21.316Z,99192.66
2022-10-01T11:26:03.857Z,99189.50
2022-10-01T11:29:09.814Z,99185.63
2022-10-01T11:31:51.720Z,99182.16
2022-10-01T11:34:50.797Z,99176.84
2022-10-01T11:37:46.419Z,99176.47
2022-10-01T11:40:22.105Z,99169.63
2022-10-01T11:42:53.928Z,99164.94
2022-10-01T11:45:25.664Z,99166.41
2022-10-01T11:47:58.480Z,99165.84
2022-10-01T11:50:28.836Z,99159.00
2022-10-01T11:53:09.380Z,99159.94
2022-10-01T11:55:46.757Z,99155.28
2022-10-01T11:58:56.411Z,99155.28
2022-10-01T12:01:24.491Z,99149.66
2022-10-01T12:03:52.819Z,99142.41
2022-10-01T12:06:26.863Z,99145.06
2022-10-01T12:09:29.663Z,99139.87
2022-10-01T12:12:15.826Z,99137.56
2022-10-01T12:14:50.448Z,99128.91
2022-10-01T12:17:33.959Z,99127.41
2022-10-01T12:20:04.692Z,99117.19
2022-10-01T12:22:34.717Z,99111.97
2022-10-01T12:25:03.662Z,99113.94
2022-10-01T12:28:12.079Z,99117.50
2022-10-01T12:30:54.675Z,99104.28
2022-10-01T12:33:28.662Z,99104.53
2022-10-01T12:36:15.202Z,99099.41
2022-10-01T12:39:06.257Z,99087.56
2022-10-01T12:41:46.490Z,99086.34
2022-10-01T12:44:25.871Z,99095.44
2022-10-01T12:47:12.727Z,99094.72
2022-10-01T12:49:56.186Z,99105.03
2022-10-01T12:52:56.080Z,99098.59
2022-10-01T12:55:54.639Z,99090.62
2022-10-01T12:58:32.131Z,99110.16
2022-10-01T13:01:15.248Z,99091.44
2022-10-01T13:03:43.593Z,99092.47
2022-10-01T13:06:18.051Z,99084.66
2022-10-01T13:09:25.144Z,99081.28
2022-10-01T13:12:16.410Z,99082.66
2022-10-01T13:14:46.147Z,99068.34
2022-10-01T13:17:20.142Z,99055.78
2022-10-01T13:20:29.965Z,99052.22
2022-10-01T13:23:12.520Z,99047.56
2022-10-01T13:25:59.621Z,99044.25
2022-10-01T13:28:52.107Z,99055.06
2022-10-01T13:31:32.654Z,99042.69
2022-10-01T13:34:01.056Z,99036.03
2022-10-01T13:36:34.833Z,99035.41
2022-10-01T13:39:03.044Z,99041.72
2022-10-01T13:41:33.580Z,99040.75
2022-10-01T13:44:07.803Z,99037.62
2022-10-01T13:46:49.759Z,99025.25
2022-10-01T13:49:28.870Z,99024.34
2022-10-01T13:51:58.376Z,99020.63
2022-10-01T13:54:37.176Z,99017.44
2022-10-01T13:57:10.810Z,99014.53
2022-10-01T13:59:39.055Z,99004.53
2022-10-01T14:02:33.514Z,98997.16
2022-10-01T14:05:29.638Z,98993.09
2022-10-01T14:08:28.567Z,98998.00
2022-10-01T14:11:18.275Z,98994.69
2022-10-01T14:13:48.260Z,98983.22
2022-10-01T14:16:16.851Z,98978.34
2022-10-01T14:18:48.138Z,98975.66
2022-10-01T14:21:40.228Z,98968.56
2022-10-01T14:24:14.884Z,98967.09
2022-10-01T14:27:12.700Z,98975.72
2022-10-01T14:29:49.081Z,98988.72
2022-10-01T14:32:17.461Z,98984.88
2022-10-01T14:34:51.373Z,98978.63
2022-10-01T14:37:22.753Z,98964.25
2022-10-01T14:40:15.315Z,98962.38
2022-10-01T14:42:44.073Z,98967.06
2022-10-01T14:45:19.273Z,98963.38
2022-10-01T14:47:47.713Z,98962.47
2022-10-01T14:50:20.711Z,98960.03
2022-10-01T14:52:50.173Z,98958.78
2022-10-01T14:55:21.350Z,98953.19
2022-10-01T14:57:52.344Z,98939.16
2022-10-01T15:00:23.404Z,98919.00
2022-10-01T15:02:54.068Z,98916.88
2022-10-01T15:05:31.018Z,98915.72
2022-10-01T15:08:23.236Z,98917.66
2022-10-01T15:11:01.068Z,98940.47
2022-10-01T15:13:34.198Z,98945.00
2022-10-01T15:16:03.012Z,98940.09
2022-10-01T15:18:32.046Z,98929.97
2022-10-01T15:21:05.920Z,98931.88
2022-10-01T15:23:35.734Z,98933.06
2022-10-01T15:26:07.050Z,98926.66
2022-10-01T15:28:36.669Z,98931.31
2022-10-01T15:31:05.956Z,98943.16
2022-10-01T15:33:37.254Z,98937.38
2022-10-01T15:36:08.490Z,98947.53
2022-10-01T15:38:36.474Z,98950.34
2022-10-01T15:41:29.998Z,98951.06
2022-10-01T15:43:54.512Z,98960.59
2022-10-01T15:46:22.596Z,98971.37
2022-10-01T15:49:15.544Z,98962.56
2022-10-01T15:51:59.698Z,98976.88
2022-10-01T15:54:28.018Z,98968.50
2022-10-01T15:56:56.603Z,98969.12
2022-10-01T15:59:25.346Z,98975.03
2022-10-01T16:01:53.632Z,98962.28
2022-10-01T16:04:22.134Z,98960.25
2022-10-01T16:06:51.152Z,98957.47
2022-10-01T16:09:21.438Z,98962.56
2022-10-01T16:12:20.160Z,98965.81
2022-10-01T16:15:01.455Z,98962.97
2022-10-01T16:17:31.765Z,98973.16
2022-10-01T16:20:22.261Z,98973.94
2022-10-01T16:22:50.719Z,98972.63
2022-10-01T16:25:18.840Z,98974.72
2022-10-01T16:27:51.687Z,98987.59
2022-10-01T16:30:25.358Z,98989.84
2022-10-01T16:32:54.629Z,99002.53
2022-10-01T16:35:25.355Z,98997.28
2022-10-01T16:37:54.956Z,98991.00
2022-10-01T16:40:26.104Z,98991.06
2022-10-01T16:42:54.531Z,98996.75
2022-10-01T16:45:25.075Z,99004.06
2022-10-01T16:47:53.944Z,99006.97
2022-10-01T16:50:22.999Z,99001.53
2022-10-01T16:52:55.715Z,99000.44
2022-10-01T16:55:26.222Z,98997.00
2022-10-01T16:57:54.709Z,98995.13
2022-10-01T17:00:25.465Z,98983.97
2022-10-01T17:02:55.099Z,98995.72
2022-10-01T17:05:27.035Z,98986.28
2022-10-01T17:07:59.531Z,98974.66
2022-10-01T17:10:36.015Z,98972.75
2022-10-01T17:13:10.293Z,98974.09
2022-10-01T17:15:38.340Z,98979.78
2022-10-01T17:18:06.208Z,98977.38
2022-10-01T17:20:34.211Z,98979.13
2022-10-01T17:23:01.853Z,98981.75
2022-10-01T17:25:31.801Z,98969.16
2022-10-01T17:28:01.051Z,98973.56
2022-10-01T17:30:29.568Z,98968.94
2022-10-01T17:32:59.528Z,98967.62
2022-10-01T17:35:28.723Z,98959.41
2022-10-01T17:37:59.342Z,98949.63
2022-10-01T17:40:27.491Z,98960.00
2022-10-01T17:42:57.248Z,98961.47
2022-10-01T17:45:55.283Z,98953.34
2022-10-01T17:48:23.031Z,98961.03
2022-10-01T17:51:07.554Z,98957.78
2022-10-01T17:54:11.305Z,98959.59
2022-10-01T17:56:39.392Z,98973.59
2022-10-01T17:59:10.743Z,98989.47
2022-10-01T18:01:38.516Z,98991.16
2022-10-01T18:04:06.853Z,98988.50
2022-10-01T18:06:34.679Z,98995.69
2022-10-01T18:09:02.544Z,98991.53
2022-10-01T18:11:30.650Z,98991.88
2022-10-01T18:13:58.487Z,98986.34
2022-10-01T18:16:27.212Z,98985.69
2022-10-01T18:21:45.125Z,98979.34
2022-10-01T18:24:14.428Z,98986.69
2022-10-01T18:26:42.257Z,99005.84
2022-10-01T18:29:15.252Z,99016.56
2022-10-01T18:31:43.567Z,99012.63
2022-10-01T18:34:16.086Z,99021.66
2022-10-01T18:37:02.345Z,99019.47
2022-10-01T18:39:48.574Z,99031.31
2022-10-01T18:42:21.389Z,99033.13
2022-10-01T18:44:59.357Z,99048.47
2022-10-01T18:47:46.441Z,99047.66
2022-10-01T18:50:25.728Z,99050.59
2022-10-01T18:53:12.697Z,99054.75
2022-10-01T18:56:03.355Z,99057.00
2022-10-01T18:58:35.071Z,99067.03
2022-10-01T19:01:35.690Z,99059.12
2022-10-01T19:04:25.352Z,99058.22
2022-10-01T19:07:18.560Z,99059.50
2022-10-01T19:10:30.724Z,99063.34
2022-10-01T19:13:04.324Z,99065.22
2022-10-01T19:15:37.443Z,99071.53
2022-10-01T19:18:27.357Z,99063.44
2022-10-01T19:21:05.812Z,99070.75
2022-10-01T19:23:51.029Z,99068.16
2022-10-01T19:26:28.522Z,99068.75
2022-10-01T19:29:14.813Z,99073.81
2022-10-01T19:31:57.473Z,99083.50
2022-10-01T19:34:34.371Z,99081.00
2022-10-01T19:37:11.041Z,99086.19
2022-10-01T19:39:39.820Z,99088.78
2022-10-01T19:42:26.071Z,99096.69
2022-10-01T19:45:06.946Z,99092.41
2022-10-01T19:47:38.195Z,99085.72
2022-10-01T19:50:29.488Z,99091.25
2022-10-01T19:52:58.476Z,99090.56
2022-10-01T19:55:28.288Z,99086.66
2022-10-01T19:57:55.975Z,99081.88
2022-10-01T20:00:23.933Z,99080.34
2022-10-01T20:03:00.331Z,99084.97
2022-10-01T20:05:32.435Z,99088.97
2022-10-01T20:08:16.997Z,99103.31
2022-10-01T20:10:53.535Z,99097.47
2022-10-01T20:13:55.545Z,99101.72
2022-10-01T20:16:30.327Z,99099.81
2022-10-01T20:19:08.605Z,99099.34
2022-10-01T20:21:39.224Z,99099.22
2022-10-01T20:24:46.536Z,99116.34
2022-10-01T20:27:23.843Z,99113.16
2022-10-01T20:30:08.477Z,99111.81
2022-10-01T20:32:35.960Z,99122.13
2022-10-01T20:35:19.304Z,99124.47
2022-10-01T20:38:02.132Z,99121.19
2022-10-01T20:40:37.303Z,99122.66
2022-10-01T20:43:09.280Z,99117.84
2022-10-01T20:45:39.493Z,99121.75
2022-10-01T20:48:18.141Z,99121.16
2022-10-01T20:50:49.762Z,99121.97
2022-10-01T20:53:38.641Z,99124.91
2022-10-01T20:56:21.917Z,99132.28
2022-10-01T20:58:53.736Z,99143.88
2022-10-01T21:01:24.179Z,99144.56
2022-10-01T21:03:57.054Z,99159.50
2022-10-01T21:06:36.499Z,99156.44
2022-10-01T21:09:34.834Z,99159.50
2022-10-01T21:12:18.926Z,99167.38
2022-10-01T21:14:53.603Z,99166.34
2022-10-01T21:17:36.590Z,99182.12
2022-10-01T21:20:04.051Z,99183.94
2022-10-01T21:23:09.300Z,99181.12
2022-10-01T21:26:00.539Z,99183.25
2022-10-01T21:28:51.989Z,99174.72
2022-10-01T21:31:53.699Z,99172.66
2022-10-01T21:34:40.124Z,99171.47
2022-10-01T21:37:16.967Z,99173.34
2022-10-01T21:39:51.008Z,99179.66
2022-10-01T21:42:27.987Z,99176.53
2022-10-01T21:45:17.088Z,99174.62
2022-10-01T21:47:51.823Z,99178.19
2022-10-01T21:50:25.584Z,99175.91
2022-10-01T21:53:29.248Z,99174.12
2022-10-01T21:56:06.003Z,99179.31
2022-10-01T21:58:49.637Z,99181.56
2022-10-01T22:01:47.161Z,99197.09
2022-10-01T22:04:38.998Z,99189.72
2022-10-01T22:07:45.230Z,99183.84
2022-10-01T22:10:17.825Z,99187.94
2022-10-01T22:12:48.632Z,99196.50
2022-10-01T22:15:22.411Z,99197.50
2022-10-01T22:17:51.464Z,99192.75
2022-10-01T22:20:22.004Z,99196.09
2022-10-01T22:22:50.403Z,99197.06
2022-10-01T22:25:18.144Z,99199.69
2022-10-01T22:27:53.810Z,99189.41
2022-10-01T22:30:26.607Z,99189.72
2022-10-01T22:33:20.278Z,99181.97
2022-10-01T22:35:53.880Z,99186.34
2022-10-01T22:38:45.279Z,99187.84
2022-10-01T22:41:30.945Z,99193.97
2022-10-01T22:43:59.029Z,99201.25
2022-10-01T22:46:56.089Z,99197.47
2022-10-01T22:49:32.690Z,99199.84
2022-10-01T22:52:20.979Z,99204.59
2022-10-01T22:55:05.163Z,99200.63
2022-10-01T22:57:50.974Z,99212.03
2022-10-01T23:00:19.127Z,99207.00
2022-10-01T23:03:14.941Z,99211.56
2022-10-01T23:05:46.980Z,99203.78
2022-10-01T23:08:35.995Z,99215.44
2022-10-01T23:11:11.401Z,99218.72
2022-10-01T23:13:44.619Z,99227.28
2022-10-01T23:16:15.249Z,99233.22
2022-10-01T23:19:02.947Z,99230.38
2022-10-01T23:21:47.461Z,99239.66
2022-10-01T23:24:28.071Z,99232.09
2022-10-01T23:27:04.197Z,99250.88
2022-10-01T23:29:58.244Z,99252.25
2022-10-01T23:32:35.650Z,99252.16
2022-10-01T23:35:22.656Z,99251.44
2022-10-01T23:38:11.527Z,99253.63
2022-10-01T23:40:41.892Z,99248.78
2022-10-01T23:43:33.242Z,99244.31
2022-10-01T23:46:14.225Z,99248.59
2022-10-01T23:48:55.331Z,99243.84
2022-10-01T23:51:41.672Z,99246.81
2022-10-01T23:54:46.528Z,99248.31
2022-10-01T23:57:19.906Z,99257.97
